sensor_id;sensor_type;location;lat;lon;timestamp;P1;durP1;ratioP1;P2;durP2;ratioP2
13263;SDS011;6700;51.988;7.646;2023-08-06T00:01:55;16.03;;;9.40;;
13263;SDS011;6700;51.988;7.646;2023-08-06T00:04:22;10.40;;;9.30;;
13263;SDS011;6700;51.988;7.646;2023-08-06T00:06:49;10.83;;;9.73;;
13263;SDS011;6700;51.988;7.646;2023-08-06T00:09:17;10.30;;;9.30;;
13263;SDS011;6700;51.988;7.646;2023-08-06T00:11:44;10.77;;;9.67;;
13263;SDS011;6700;51.988;7.646;2023-08-06T00:14:15;10.80;;;8.90;;
13263;SDS011;6700;51.988;7.646;2023-08-06T00:16:44;10.37;;;9.33;;
13263;SDS011;6700;51.988;7.646;2023-08-06T00:19:11;11.27;;;10.10;;
13263;SDS011;6700;51.988;7.646;2023-08-06T00:21:40;10.77;;;9.63;;
13263;SDS011;6700;51.988;7.646;2023-08-06T00:24:07;10.83;;;9.20;;
13263;SDS011;6700;51.988;7.646;2023-08-06T00:26:35;9.97;;;8.83;;
13263;SDS011;6700;51.988;7.646;2023-08-06T00:29:02;11.10;;;10.00;;
13263;SDS011;6700;51.988;7.646;2023-08-06T00:31:29;13.17;;;10.13;;
13263;SDS011;6700;51.988;7.646;2023-08-06T00:33:56;11.53;;;9.20;;
13263;SDS011;6700;51.988;7.646;2023-08-06T00:36:25;10.00;;;9.00;;
13263;SDS011;6700;51.988;7.646;2023-08-06T00:38:52;11.13;;;8.97;;
13263;SDS011;6700;51.988;7.646;2023-08-06T00:41:21;9.97;;;8.67;;
13263;SDS011;6700;51.988;7.646;2023-08-06T00:43:49;10.43;;;9.43;;
13263;SDS011;6700;51.988;7.646;2023-08-06T00:46:16;10.87;;;8.77;;
13263;SDS011;6700;51.988;7.646;2023-08-06T00:48:43;10.00;;;9.00;;
13263;SDS011;6700;51.988;7.646;2023-08-06T00:51:11;9.77;;;8.83;;
13263;SDS011;6700;51.988;7.646;2023-08-06T00:53:38;13.73;;;9.03;;
13263;SDS011;6700;51.988;7.646;2023-08-06T00:56:09;9.57;;;8.57;;
13263;SDS011;6700;51.988;7.646;2023-08-06T00:58:37;10.90;;;9.20;;
13263;SDS011;6700;51.988;7.646;2023-08-06T01:01:05;9.83;;;8.93;;
13263;SDS011;6700;51.988;7.646;2023-08-06T01:03:32;13.60;;;9.23;;
13263;SDS011;6700;51.988;7.646;2023-08-06T01:06:03;10.90;;;9.00;;
13263;SDS011;6700;51.988;7.646;2023-08-06T01:11:01;9.77;;;8.17;;
13263;SDS011;6700;51.988;7.646;2023-08-06T01:16:03;12.70;;;8.97;;
13263;SDS011;6700;51.988;7.646;2023-08-06T01:18:32;8.27;;;7.47;;
13263;SDS011;6700;51.988;7.646;2023-08-06T01:21:00;8.47;;;7.67;;
13263;SDS011;6700;51.988;7.646;2023-08-06T01:23:34;8.90;;;8.00;;
13263;SDS011;6700;51.988;7.646;2023-08-06T01:31:27;10.63;;;8.57;;
13263;SDS011;6700;51.988;7.646;2023-08-06T01:33:54;10.00;;;7.90;;
13263;SDS011;6700;51.988;7.646;2023-08-06T01:36:22;9.43;;;8.53;;
13263;SDS011;6700;51.988;7.646;2023-08-06T01:38:53;9.83;;;8.83;;
13263;SDS011;6700;51.988;7.646;2023-08-06T01:41:21;12.03;;;8.93;;
13263;SDS011;6700;51.988;7.646;2023-08-06T01:43:48;9.57;;;8.07;;
13263;SDS011;6700;51.988;7.646;2023-08-06T01:46:15;10.17;;;8.37;;
13263;SDS011;6700;51.988;7.646;2023-08-06T01:48:43;10.80;;;7.40;;
13263;SDS011;6700;51.988;7.646;2023-08-06T01:51:11;11.33;;;8.80;;
13263;SDS011;6700;51.988;7.646;2023-08-06T01:53:38;9.80;;;8.80;;
13263;SDS011;6700;51.988;7.646;2023-08-06T01:56:05;9.13;;;8.17;;
13263;SDS011;6700;51.988;7.646;2023-08-06T01:58:33;9.37;;;8.20;;
13263;SDS011;6700;51.988;7.646;2023-08-06T02:01:03;8.53;;;7.77;;
13263;SDS011;6700;51.988;7.646;2023-08-06T02:03:31;9.10;;;8.20;;
13263;SDS011;6700;51.988;7.646;2023-08-06T02:05:58;10.10;;;8.23;;
13263;SDS011;6700;51.988;7.646;2023-08-06T02:08:27;11.07;;;8.63;;
13263;SDS011;6700;51.988;7.646;2023-08-06T02:10:54;14.30;;;8.57;;
13263;SDS011;6700;51.988;7.646;2023-08-06T02:13:21;9.20;;;8.30;;
13263;SDS011;6700;51.988;7.646;2023-08-06T02:15:49;8.53;;;7.63;;
13263;SDS011;6700;51.988;7.646;2023-08-06T02:18:16;10.87;;;8.13;;
13263;SDS011;6700;51.988;7.646;2023-08-06T02:20:43;9.30;;;8.13;;
13263;SDS011;6700;51.988;7.646;2023-08-06T02:23:11;9.87;;;8.80;;
13263;SDS011;6700;51.988;7.646;2023-08-06T02:25:38;9.20;;;8.27;;
13263;SDS011;6700;51.988;7.646;2023-08-06T02:28:05;10.77;;;8.70;;
13263;SDS011;6700;51.988;7.646;2023-08-06T02:30:33;8.60;;;7.70;;
13263;SDS011;6700;51.988;7.646;2023-08-06T02:33:01;10.70;;;7.57;;
13263;SDS011;6700;51.988;7.646;2023-08-06T02:35:28;8.93;;;8.03;;
13263;SDS011;6700;51.988;7.646;2023-08-06T02:37:55;10.90;;;7.73;;
13263;SDS011;6700;51.988;7.646;2023-08-06T02:40:23;8.53;;;7.70;;
13263;SDS011;6700;51.988;7.646;2023-08-06T02:42:50;9.33;;;7.67;;
13263;SDS011;6700;51.988;7.646;2023-08-06T02:45:17;11.50;;;7.87;;
13263;SDS011;6700;51.988;7.646;2023-08-06T02:47:44;10.60;;;8.10;;
13263;SDS011;6700;51.988;7.646;2023-08-06T02:50:11;8.67;;;6.80;;
13263;SDS011;6700;51.988;7.646;2023-08-06T02:52:39;8.60;;;7.80;;
13263;SDS011;6700;51.988;7.646;2023-08-06T02:55:06;11.40;;;8.27;;
13263;SDS011;6700;51.988;7.646;2023-08-06T02:57:33;8.00;;;7.20;;
13263;SDS011;6700;51.988;7.646;2023-08-06T03:00:01;9.23;;;7.97;;
13263;SDS011;6700;51.988;7.646;2023-08-06T03:02:29;11.67;;;7.93;;
13263;SDS011;6700;51.988;7.646;2023-08-06T03:04:56;8.70;;;7.80;;
13263;SDS011;6700;51.988;7.646;2023-08-06T03:07:23;9.03;;;7.90;;
13263;SDS011;6700;51.988;7.646;2023-08-06T03:09:50;8.27;;;7.47;;
13263;SDS011;6700;51.988;7.646;2023-08-06T03:12:17;8.23;;;7.47;;
13263;SDS011;6700;51.988;7.646;2023-08-06T03:14:45;10.50;;;6.40;;
13263;SDS011;6700;51.988;7.646;2023-08-06T03:17:12;8.40;;;7.27;;
13263;SDS011;6700;51.988;7.646;2023-08-06T03:19:39;8.67;;;7.77;;
13263;SDS011;6700;51.988;7.646;2023-08-06T03:22:08;8.10;;;7.30;;
13263;SDS011;6700;51.988;7.646;2023-08-06T03:24:35;9.63;;;7.53;;
13263;SDS011;6700;51.988;7.646;2023-08-06T03:27:03;8.03;;;7.33;;
13263;SDS011;6700;51.988;7.646;2023-08-06T03:29:30;8.47;;;7.67;;
13263;SDS011;6700;51.988;7.646;2023-08-06T03:31:58;7.50;;;6.80;;
13263;SDS011;6700;51.988;7.646;2023-08-06T03:34:25;8.80;;;7.83;;
13263;SDS011;6700;51.988;7.646;2023-08-06T03:36:52;9.13;;;7.40;;
13263;SDS011;6700;51.988;7.646;2023-08-06T03:39:19;8.17;;;7.37;;
13263;SDS011;6700;51.988;7.646;2023-08-06T03:41:46;8.87;;;7.97;;
13263;SDS011;6700;51.988;7.646;2023-08-06T03:44:13;8.57;;;7.30;;
13263;SDS011;6700;51.988;7.646;2023-08-06T03:46:41;8.00;;;7.30;;
13263;SDS011;6700;51.988;7.646;2023-08-06T03:49:12;8.40;;;7.60;;
13263;SDS011;6700;51.988;7.646;2023-08-06T03:51:39;9.40;;;7.87;;
13263;SDS011;6700;51.988;7.646;2023-08-06T03:54:06;8.63;;;7.73;;
13263;SDS011;6700;51.988;7.646;2023-08-06T03:56:34;8.37;;;7.57;;
13263;SDS011;6700;51.988;7.646;2023-08-06T03:59:01;9.87;;;7.60;;
13263;SDS011;6700;51.988;7.646;2023-08-06T04:01:28;7.80;;;7.10;;
13263;SDS011;6700;51.988;7.646;2023-08-06T04:03:55;8.83;;;8.00;;
13263;SDS011;6700;51.988;7.646;2023-08-06T04:06:22;8.43;;;7.53;;
13263;SDS011;6700;51.988;7.646;2023-08-06T04:08:50;12.17;;;8.10;;
13263;SDS011;6700;51.988;7.646;2023-08-06T04:11:18;7.40;;;6.70;;
13263;SDS011;6700;51.988;7.646;2023-08-06T04:13:45;7.80;;;7.10;;
13263;SDS011;6700;51.988;7.646;2023-08-06T04:16:12;8.33;;;7.20;;
13263;SDS011;6700;51.988;7.646;2023-08-06T04:18:41;8.83;;;7.90;;
13263;SDS011;6700;51.988;7.646;2023-08-06T04:21:08;8.30;;;6.87;;
13263;SDS011;6700;51.988;7.646;2023-08-06T04:23:35;10.83;;;7.57;;
13263;SDS011;6700;51.988;7.646;2023-08-06T04:26:03;8.30;;;7.50;;
13263;SDS011;6700;51.988;7.646;2023-08-06T04:28:30;8.60;;;7.80;;
13263;SDS011;6700;51.988;7.646;2023-08-06T04:31:01;8.17;;;7.03;;
13263;SDS011;6700;51.988;7.646;2023-08-06T04:33:28;9.90;;;7.63;;
13263;SDS011;6700;51.988;7.646;2023-08-06T04:35:56;8.33;;;7.53;;
13263;SDS011;6700;51.988;7.646;2023-08-06T04:38:23;9.37;;;6.93;;
13263;SDS011;6700;51.988;7.646;2023-08-06T04:40:52;8.20;;;7.33;;
13263;SDS011;6700;51.988;7.646;2023-08-06T04:43:19;7.37;;;6.67;;
13263;SDS011;6700;51.988;7.646;2023-08-06T04:45:49;8.63;;;7.07;;
13263;SDS011;6700;51.988;7.646;2023-08-06T04:48:17;8.47;;;7.47;;
13263;SDS011;6700;51.988;7.646;2023-08-06T04:50:47;8.77;;;7.10;;
13263;SDS011;6700;51.988;7.646;2023-08-06T04:53:15;9.00;;;7.30;;
13263;SDS011;6700;51.988;7.646;2023-08-06T04:55:43;8.67;;;7.07;;
13263;SDS011;6700;51.988;7.646;2023-08-06T04:58:12;7.63;;;6.90;;
13263;SDS011;6700;51.988;7.646;2023-08-06T05:00:39;8.73;;;7.30;;
13263;SDS011;6700;51.988;7.646;2023-08-06T05:03:06;7.50;;;6.80;;
13263;SDS011;6700;51.988;7.646;2023-08-06T05:05:34;8.57;;;6.93;;
13263;SDS011;6700;51.988;7.646;2023-08-06T05:08:01;9.00;;;6.80;;
13263;SDS011;6700;51.988;7.646;2023-08-06T05:10:29;7.63;;;6.93;;
13263;SDS011;6700;51.988;7.646;2023-08-06T05:12:56;7.23;;;6.50;;
13263;SDS011;6700;51.988;7.646;2023-08-06T05:15:23;7.37;;;6.67;;
13263;SDS011;6700;51.988;7.646;2023-08-06T05:17:51;7.77;;;6.70;;
13263;SDS011;6700;51.988;7.646;2023-08-06T05:20:20;7.50;;;6.80;;
13263;SDS011;6700;51.988;7.646;2023-08-06T05:22:47;11.87;;;7.33;;
13263;SDS011;6700;51.988;7.646;2023-08-06T05:25:14;9.70;;;6.77;;
13263;SDS011;6700;51.988;7.646;2023-08-06T05:27:42;7.83;;;6.90;;
13263;SDS011;6700;51.988;7.646;2023-08-06T05:30:09;6.73;;;6.13;;
13263;SDS011;6700;51.988;7.646;2023-08-06T05:32:37;9.87;;;6.70;;
13263;SDS011;6700;51.988;7.646;2023-08-06T05:35:04;6.70;;;6.10;;
13263;SDS011;6700;51.988;7.646;2023-08-06T05:37:33;7.60;;;5.90;;
13263;SDS011;6700;51.988;7.646;2023-08-06T05:40:00;6.77;;;5.77;;
13263;SDS011;6700;51.988;7.646;2023-08-06T05:42:29;7.43;;;5.67;;
13263;SDS011;6700;51.988;7.646;2023-08-06T05:44:56;6.53;;;5.93;;
13263;SDS011;6700;51.988;7.646;2023-08-06T05:47:23;6.13;;;5.53;;
13263;SDS011;6700;51.988;7.646;2023-08-06T05:49:51;6.73;;;5.57;;
13263;SDS011;6700;51.988;7.646;2023-08-06T05:52:18;9.87;;;6.97;;
13263;SDS011;6700;51.988;7.646;2023-08-06T05:54:49;7.20;;;6.50;;
13263;SDS011;6700;51.988;7.646;2023-08-06T05:57:17;8.23;;;6.37;;
13263;SDS011;6700;51.988;7.646;2023-08-06T05:59:44;6.77;;;6.10;;
13263;SDS011;6700;51.988;7.646;2023-08-06T06:02:11;7.33;;;6.73;;
13263;SDS011;6700;51.988;7.646;2023-08-06T06:04:40;6.73;;;6.13;;
13263;SDS011;6700;51.988;7.646;2023-08-06T06:07:07;10.27;;;6.63;;
13263;SDS011;6700;51.988;7.646;2023-08-06T06:09:34;6.50;;;5.90;;
13263;SDS011;6700;51.988;7.646;2023-08-06T06:12:01;7.37;;;6.63;;
13263;SDS011;6700;51.988;7.646;2023-08-06T06:14:29;6.30;;;5.80;;
13263;SDS011;6700;51.988;7.646;2023-08-06T06:16:56;8.10;;;7.13;;
13263;SDS011;6700;51.988;7.646;2023-08-06T06:19:23;8.47;;;6.40;;
13263;SDS011;6700;51.988;7.646;2023-08-06T06:21:53;6.03;;;5.53;;
13263;SDS011;6700;51.988;7.646;2023-08-06T06:24:24;8.30;;;6.37;;
13263;SDS011;6700;51.988;7.646;2023-08-06T06:26:51;6.20;;;5.70;;
13263;SDS011;6700;51.988;7.646;2023-08-06T06:29:18;6.23;;;5.63;;
13263;SDS011;6700;51.988;7.646;2023-08-06T06:31:45;6.67;;;6.07;;
13263;SDS011;6700;51.988;7.646;2023-08-06T06:34:13;6.13;;;5.63;;
13263;SDS011;6700;51.988;7.646;2023-08-06T06:36:40;6.47;;;5.40;;
13263;SDS011;6700;51.988;7.646;2023-08-06T06:39:07;6.13;;;5.57;;
13263;SDS011;6700;51.988;7.646;2023-08-06T06:41:34;5.73;;;5.00;;
13263;SDS011;6700;51.988;7.646;2023-08-06T06:44:02;8.70;;;5.33;;
13263;SDS011;6700;51.988;7.646;2023-08-06T06:46:29;4.83;;;4.43;;
13263;SDS011;6700;51.988;7.646;2023-08-06T06:48:56;5.53;;;5.13;;
13263;SDS011;6700;51.988;7.646;2023-08-06T06:51:23;6.07;;;5.07;;
13263;SDS011;6700;51.988;7.646;2023-08-06T06:53:50;6.63;;;4.83;;
13263;SDS011;6700;51.988;7.646;2023-08-06T06:56:17;5.07;;;4.67;;
13263;SDS011;6700;51.988;7.646;2023-08-06T06:58:45;5.50;;;4.97;;
13263;SDS011;6700;51.988;7.646;2023-08-06T07:01:12;5.47;;;4.60;;
13263;SDS011;6700;51.988;7.646;2023-08-06T07:03:39;5.80;;;5.30;;
13263;SDS011;6700;51.988;7.646;2023-08-06T07:06:07;5.17;;;4.67;;
13263;SDS011;6700;51.988;7.646;2023-08-06T07:08:34;8.90;;;5.90;;
13263;SDS011;6700;51.988;7.646;2023-08-06T07:11:02;4.80;;;4.40;;
13263;SDS011;6700;51.988;7.646;2023-08-06T07:13:29;4.80;;;4.40;;
13263;SDS011;6700;51.988;7.646;2023-08-06T07:15:57;4.80;;;4.40;;
13263;SDS011;6700;51.988;7.646;2023-08-06T07:18:24;6.27;;;4.50;;
13263;SDS011;6700;51.988;7.646;2023-08-06T07:20:54;4.90;;;4.40;;
13263;SDS011;6700;51.988;7.646;2023-08-06T07:23:22;5.18;;;4.68;;
13263;SDS011;6700;51.988;7.646;2023-08-06T07:25:49;5.40;;;4.90;;
13263;SDS011;6700;51.988;7.646;2023-08-06T07:28:17;7.07;;;4.67;;
13263;SDS011;6700;51.988;7.646;2023-08-06T07:30:44;5.63;;;4.77;;
13263;SDS011;6700;51.988;7.646;2023-08-06T07:33:12;4.83;;;4.13;;
13263;SDS011;6700;51.988;7.646;2023-08-06T07:35:39;8.03;;;4.60;;
13263;SDS011;6700;51.988;7.646;2023-08-06T07:38:07;4.13;;;3.80;;
13263;SDS011;6700;51.988;7.646;2023-08-06T07:40:35;6.13;;;4.13;;
13263;SDS011;6700;51.988;7.646;2023-08-06T07:43:03;4.95;;;4.55;;
13263;SDS011;6700;51.988;7.646;2023-08-06T07:45:34;5.27;;;4.40;;
13263;SDS011;6700;51.988;7.646;2023-08-06T07:48:02;4.50;;;4.10;;
13263;SDS011;6700;51.988;7.646;2023-08-06T07:50:30;5.13;;;4.30;;
13263;SDS011;6700;51.988;7.646;2023-08-06T07:52:57;5.43;;;4.30;;
13263;SDS011;6700;51.988;7.646;2023-08-06T07:55:25;4.50;;;4.10;;
13263;SDS011;6700;51.988;7.646;2023-08-06T07:57:53;7.65;;;4.72;;
13263;SDS011;6700;51.988;7.646;2023-08-06T08:00:21;4.32;;;3.83;;
13263;SDS011;6700;51.988;7.646;2023-08-06T08:02:48;4.80;;;3.45;;
13263;SDS011;6700;51.988;7.646;2023-08-06T08:05:15;3.50;;;3.20;;
13263;SDS011;6700;51.988;7.646;2023-08-06T08:07:43;2.65;;;2.45;;
13263;SDS011;6700;51.988;7.646;2023-08-06T08:10:10;3.35;;;3.05;;
13263;SDS011;6700;51.988;7.646;2023-08-06T08:12:39;3.22;;;2.85;;
13263;SDS011;6700;51.988;7.646;2023-08-06T08:15:07;3.10;;;2.90;;
13263;SDS011;6700;51.988;7.646;2023-08-06T08:17:35;3.45;;;2.60;;
13263;SDS011;6700;51.988;7.646;2023-08-06T08:20:03;7.68;;;2.80;;
13263;SDS011;6700;51.988;7.646;2023-08-06T08:22:31;4.57;;;2.40;;
13263;SDS011;6700;51.988;7.646;2023-08-06T08:24:58;6.90;;;2.53;;
13263;SDS011;6700;51.988;7.646;2023-08-06T08:27:28;3.30;;;2.05;;
13263;SDS011;6700;51.988;7.646;2023-08-06T08:29:57;5.20;;;2.45;;
13263;SDS011;6700;51.988;7.646;2023-08-06T08:32:24;6.35;;;2.55;;
13263;SDS011;6700;51.988;7.646;2023-08-06T08:34:51;3.08;;;2.20;;
13263;SDS011;6700;51.988;7.646;2023-08-06T08:37:19;3.58;;;2.53;;
13263;SDS011;6700;51.988;7.646;2023-08-06T08:39:46;3.17;;;2.53;;
13263;SDS011;6700;51.988;7.646;2023-08-06T08:42:14;4.07;;;2.83;;
13263;SDS011;6700;51.988;7.646;2023-08-06T08:44:42;4.22;;;2.65;;
13263;SDS011;6700;51.988;7.646;2023-08-06T08:47:10;2.92;;;2.72;;
13263;SDS011;6700;51.988;7.646;2023-08-06T08:49:37;4.82;;;2.30;;
13263;SDS011;6700;51.988;7.646;2023-08-06T08:52:05;3.05;;;2.85;;
13263;SDS011;6700;51.988;7.646;2023-08-06T08:54:33;5.55;;;2.70;;
13263;SDS011;6700;51.988;7.646;2023-08-06T08:57:01;4.22;;;2.83;;
13263;SDS011;6700;51.988;7.646;2023-08-06T08:59:28;3.25;;;2.95;;
13263;SDS011;6700;51.988;7.646;2023-08-06T09:01:56;2.50;;;2.30;;
13263;SDS011;6700;51.988;7.646;2023-08-06T09:04:24;3.55;;;2.60;;
13263;SDS011;6700;51.988;7.646;2023-08-06T09:06:53;3.38;;;2.40;;
13263;SDS011;6700;51.988;7.646;2023-08-06T09:09:35;2.80;;;2.60;;
13263;SDS011;6700;51.988;7.646;2023-08-06T09:12:08;2.92;;;2.63;;
13263;SDS011;6700;51.988;7.646;2023-08-06T09:14:37;3.65;;;3.28;;
13263;SDS011;6700;51.988;7.646;2023-08-06T09:17:04;3.95;;;3.50;;
13263;SDS011;6700;51.988;7.646;2023-08-06T09:19:32;2.83;;;2.53;;
13263;SDS011;6700;51.988;7.646;2023-08-06T09:21:59;4.80;;;2.63;;
13263;SDS011;6700;51.988;7.646;2023-08-06T09:24:27;4.10;;;2.67;;
13263;SDS011;6700;51.988;7.646;2023-08-06T09:26:54;2.88;;;2.67;;
13263;SDS011;6700;51.988;7.646;2023-08-06T09:29:21;2.45;;;2.25;;
13263;SDS011;6700;51.988;7.646;2023-08-06T09:31:49;3.25;;;2.55;;
13263;SDS011;6700;51.988;7.646;2023-08-06T09:34:19;2.60;;;2.40;;
13263;SDS011;6700;51.988;7.646;2023-08-06T09:36:48;2.25;;;2.05;;
13263;SDS011;6700;51.988;7.646;2023-08-06T09:39:19;3.50;;;2.55;;
13263;SDS011;6700;51.988;7.646;2023-08-06T09:41:47;3.45;;;2.42;;
13263;SDS011;6700;51.988;7.646;2023-08-06T09:46:45;3.75;;;2.20;;
13263;SDS011;6700;51.988;7.646;2023-08-06T09:49:13;2.35;;;2.15;;
13263;SDS011;6700;51.988;7.646;2023-08-06T09:51:41;2.35;;;2.15;;
13263;SDS011;6700;51.988;7.646;2023-08-06T09:54:08;3.03;;;2.47;;
13263;SDS011;6700;51.988;7.646;2023-08-06T09:56:53;4.18;;;2.30;;
13263;SDS011;6700;51.988;7.646;2023-08-06T09:59:20;2.67;;;2.30;;
13263;SDS011;6700;51.988;7.646;2023-08-06T10:01:47;4.75;;;3.15;;
13263;SDS011;6700;51.988;7.646;2023-08-06T10:04:15;3.22;;;2.55;;
13263;SDS011;6700;51.988;7.646;2023-08-06T10:06:48;3.05;;;2.55;;
13263;SDS011;6700;51.988;7.646;2023-08-06T10:09:15;4.68;;;2.10;;
13263;SDS011;6700;51.988;7.646;2023-08-06T10:11:42;4.40;;;2.50;;
13263;SDS011;6700;51.988;7.646;2023-08-06T10:14:16;4.45;;;2.40;;
13263;SDS011;6700;51.988;7.646;2023-08-06T10:16:46;2.50;;;2.25;;
13263;SDS011;6700;51.988;7.646;2023-08-06T10:19:14;2.50;;;2.30;;
13263;SDS011;6700;51.988;7.646;2023-08-06T10:21:56;3.42;;;2.58;;
13263;SDS011;6700;51.988;7.646;2023-08-06T10:24:44;2.70;;;2.42;;
13263;SDS011;6700;51.988;7.646;2023-08-06T10:27:12;2.40;;;2.15;;
13263;SDS011;6700;51.988;7.646;2023-08-06T10:29:40;2.70;;;2.45;;
13263;SDS011;6700;51.988;7.646;2023-08-06T10:32:08;3.60;;;2.72;;
13263;SDS011;6700;51.988;7.646;2023-08-06T10:37:35;3.10;;;2.17;;
13263;SDS011;6700;51.988;7.646;2023-08-06T10:40:03;3.00;;;2.75;;
13263;SDS011;6700;51.988;7.646;2023-08-06T10:42:33;2.78;;;1.95;;
13263;SDS011;6700;51.988;7.646;2023-08-06T10:45:17;4.18;;;2.42;;
13263;SDS011;6700;51.988;7.646;2023-08-06T10:47:44;2.88;;;2.30;;
13263;SDS011;6700;51.988;7.646;2023-08-06T10:50:13;3.78;;;2.63;;
13263;SDS011;6700;51.988;7.646;2023-08-06T10:52:45;2.30;;;2.10;;
13263;SDS011;6700;51.988;7.646;2023-08-06T10:55:26;2.60;;;2.40;;
13263;SDS011;6700;51.988;7.646;2023-08-06T10:57:55;2.58;;;2.38;;
13263;SDS011;6700;51.988;7.646;2023-08-06T11:00:23;2.65;;;2.40;;
13263;SDS011;6700;51.988;7.646;2023-08-06T11:02:51;2.53;;;2.28;;
13263;SDS011;6700;51.988;7.646;2023-08-06T11:05:18;3.22;;;2.42;;
13263;SDS011;6700;51.988;7.646;2023-08-06T11:07:45;2.50;;;2.30;;
13263;SDS011;6700;51.988;7.646;2023-08-06T11:10:21;2.47;;;2.28;;
13263;SDS011;6700;51.988;7.646;2023-08-06T11:12:49;2.88;;;2.42;;
13263;SDS011;6700;51.988;7.646;2023-08-06T11:15:16;5.43;;;2.50;;
13263;SDS011;6700;51.988;7.646;2023-08-06T11:17:43;2.70;;;2.50;;
13263;SDS011;6700;51.988;7.646;2023-08-06T11:20:10;2.30;;;2.10;;
13263;SDS011;6700;51.988;7.646;2023-08-06T11:22:39;3.05;;;2.60;;
13263;SDS011;6700;51.988;7.646;2023-08-06T11:25:07;4.18;;;2.50;;
13263;SDS011;6700;51.988;7.646;2023-08-06T11:27:34;2.47;;;2.28;;
13263;SDS011;6700;51.988;7.646;2023-08-06T11:30:01;3.47;;;2.13;;
13263;SDS011;6700;51.988;7.646;2023-08-06T11:32:29;3.20;;;2.58;;
13263;SDS011;6700;51.988;7.646;2023-08-06T11:34:56;2.67;;;2.10;;
13263;SDS011;6700;51.988;7.646;2023-08-06T11:37:23;2.35;;;2.10;;
13263;SDS011;6700;51.988;7.646;2023-08-06T11:39:51;3.20;;;2.40;;
13263;SDS011;6700;51.988;7.646;2023-08-06T11:42:19;2.65;;;2.38;;
13263;SDS011;6700;51.988;7.646;2023-08-06T11:44:46;3.10;;;2.67;;
13263;SDS011;6700;51.988;7.646;2023-08-06T11:47:15;4.57;;;2.75;;
13263;SDS011;6700;51.988;7.646;2023-08-06T11:52:23;3.90;;;2.97;;
13263;SDS011;6700;51.988;7.646;2023-08-06T11:55:07;4.68;;;2.83;;
13263;SDS011;6700;51.988;7.646;2023-08-06T11:57:38;3.95;;;3.50;;
13263;SDS011;6700;51.988;7.646;2023-08-06T12:00:12;3.58;;;2.78;;
13263;SDS011;6700;51.988;7.646;2023-08-06T12:02:40;3.35;;;3.05;;
13263;SDS011;6700;51.988;7.646;2023-08-06T12:05:17;3.22;;;2.90;;
13263;SDS011;6700;51.988;7.646;2023-08-06T12:07:56;3.42;;;3.10;;
13263;SDS011;6700;51.988;7.646;2023-08-06T12:10:24;3.08;;;2.88;;
13263;SDS011;6700;51.988;7.646;2023-08-06T12:12:51;3.75;;;2.75;;
13263;SDS011;6700;51.988;7.646;2023-08-06T12:15:20;4.68;;;2.65;;
13263;SDS011;6700;51.988;7.646;2023-08-06T12:17:47;4.97;;;2.83;;
13263;SDS011;6700;51.988;7.646;2023-08-06T12:20:14;4.47;;;3.20;;
13263;SDS011;6700;51.988;7.646;2023-08-06T12:22:42;4.20;;;2.80;;
13263;SDS011;6700;51.988;7.646;2023-08-06T12:25:10;3.72;;;3.42;;
13263;SDS011;6700;51.988;7.646;2023-08-06T12:27:39;3.55;;;2.78;;
13263;SDS011;6700;51.988;7.646;2023-08-06T12:30:07;3.28;;;3.08;;
13263;SDS011;6700;51.988;7.646;2023-08-06T12:32:35;5.13;;;3.30;;
13263;SDS011;6700;51.988;7.646;2023-08-06T12:35:02;3.80;;;3.50;;
13263;SDS011;6700;51.988;7.646;2023-08-06T12:37:31;3.25;;;2.85;;
13263;SDS011;6700;51.988;7.646;2023-08-06T12:39:58;3.67;;;3.30;;
13263;SDS011;6700;51.988;7.646;2023-08-06T12:42:41;4.03;;;2.60;;
13263;SDS011;6700;51.988;7.646;2023-08-06T12:45:08;2.90;;;2.70;;
13263;SDS011;6700;51.988;7.646;2023-08-06T12:47:36;4.47;;;2.90;;
13263;SDS011;6700;51.988;7.646;2023-08-06T12:50:03;3.40;;;2.60;;
13263;SDS011;6700;51.988;7.646;2023-08-06T12:52:34;3.25;;;2.80;;
13263;SDS011;6700;51.988;7.646;2023-08-06T12:55:01;3.15;;;2.95;;
13263;SDS011;6700;51.988;7.646;2023-08-06T12:57:28;3.38;;;3.08;;
13263;SDS011;6700;51.988;7.646;2023-08-06T13:00:15;2.60;;;2.40;;
13263;SDS011;6700;51.988;7.646;2023-08-06T13:02:43;3.40;;;2.80;;
13263;SDS011;6700;51.988;7.646;2023-08-06T13:05:10;3.33;;;2.70;;
13263;SDS011;6700;51.988;7.646;2023-08-06T13:07:37;7.35;;;3.95;;
13263;SDS011;6700;51.988;7.646;2023-08-06T13:10:05;6.55;;;2.92;;
13263;SDS011;6700;51.988;7.646;2023-08-06T13:12:32;2.53;;;2.33;;
13263;SDS011;6700;51.988;7.646;2023-08-06T13:14:59;3.28;;;2.72;;
13263;SDS011;6700;51.988;7.646;2023-08-06T13:17:26;4.63;;;2.67;;
13263;SDS011;6700;51.988;7.646;2023-08-06T13:19:54;2.65;;;2.45;;
13263;SDS011;6700;51.988;7.646;2023-08-06T13:22:21;3.95;;;2.72;;
13263;SDS011;6700;51.988;7.646;2023-08-06T13:24:48;2.70;;;2.47;;
13263;SDS011;6700;51.988;7.646;2023-08-06T13:27:15;3.22;;;2.90;;
13263;SDS011;6700;51.988;7.646;2023-08-06T13:29:43;2.83;;;2.58;;
13263;SDS011;6700;51.988;7.646;2023-08-06T13:32:10;2.55;;;2.33;;
13263;SDS011;6700;51.988;7.646;2023-08-06T13:34:37;3.42;;;2.33;;
13263;SDS011;6700;51.988;7.646;2023-08-06T13:37:04;2.40;;;2.20;;
13263;SDS011;6700;51.988;7.646;2023-08-06T13:39:31;2.10;;;2.00;;
13263;SDS011;6700;51.988;7.646;2023-08-06T13:41:59;2.42;;;2.22;;
13263;SDS011;6700;51.988;7.646;2023-08-06T13:44:26;2.67;;;2.10;;
13263;SDS011;6700;51.988;7.646;2023-08-06T13:46:55;3.05;;;2.40;;
13263;SDS011;6700;51.988;7.646;2023-08-06T13:49:22;2.40;;;2.20;;
13263;SDS011;6700;51.988;7.646;2023-08-06T13:51:49;2.63;;;2.42;;
13263;SDS011;6700;51.988;7.646;2023-08-06T13:54:17;2.60;;;2.40;;
13263;SDS011;6700;51.988;7.646;2023-08-06T13:56:44;2.47;;;2.20;;
13263;SDS011;6700;51.988;7.646;2023-08-06T13:59:11;3.08;;;2.03;;
13263;SDS011;6700;51.988;7.646;2023-08-06T14:01:40;3.42;;;2.38;;
13263;SDS011;6700;51.988;7.646;2023-08-06T14:04:17;3.72;;;2.50;;
13263;SDS011;6700;51.988;7.646;2023-08-06T14:06:45;3.85;;;2.38;;
13263;SDS011;6700;51.988;7.646;2023-08-06T14:09:12;2.60;;;2.40;;
13263;SDS011;6700;51.988;7.646;2023-08-06T14:11:46;2.83;;;2.40;;
13263;SDS011;6700;51.988;7.646;2023-08-06T14:14:13;2.65;;;2.45;;
13263;SDS011;6700;51.988;7.646;2023-08-06T14:16:40;2.42;;;2.30;;
13263;SDS011;6700;51.988;7.646;2023-08-06T14:19:07;5.97;;;2.40;;
13263;SDS011;6700;51.988;7.646;2023-08-06T14:21:34;2.45;;;2.25;;
13263;SDS011;6700;51.988;7.646;2023-08-06T14:24:09;4.95;;;2.42;;
13263;SDS011;6700;51.988;7.646;2023-08-06T14:26:36;2.35;;;2.25;;
13263;SDS011;6700;51.988;7.646;2023-08-06T14:29:03;2.30;;;2.10;;
13263;SDS011;6700;51.988;7.646;2023-08-06T14:31:31;1.90;;;1.70;;
13263;SDS011;6700;51.988;7.646;2023-08-06T14:34:01;2.33;;;1.95;;
13263;SDS011;6700;51.988;7.646;2023-08-06T14:36:39;2.78;;;1.85;;
13263;SDS011;6700;51.988;7.646;2023-08-06T14:39:07;2.30;;;2.10;;
13263;SDS011;6700;51.988;7.646;2023-08-06T14:41:34;1.92;;;1.83;;
13263;SDS011;6700;51.988;7.646;2023-08-06T14:44:09;1.67;;;1.58;;
13263;SDS011;6700;51.988;7.646;2023-08-06T14:46:36;2.22;;;1.90;;
13263;SDS011;6700;51.988;7.646;2023-08-06T14:49:06;2.22;;;1.80;;
13263;SDS011;6700;51.988;7.646;2023-08-06T14:51:36;2.03;;;1.93;;
13263;SDS011;6700;51.988;7.646;2023-08-06T14:54:19;4.27;;;1.73;;
13263;SDS011;6700;51.988;7.646;2023-08-06T14:56:47;2.28;;;2.08;;
13263;SDS011;6700;51.988;7.646;2023-08-06T14:59:22;1.90;;;1.80;;
13263;SDS011;6700;51.988;7.646;2023-08-06T15:01:56;5.10;;;2.23;;
13263;SDS011;6700;51.988;7.646;2023-08-06T15:04:29;3.65;;;2.25;;
13263;SDS011;6700;51.988;7.646;2023-08-06T15:06:56;3.73;;;2.30;;
13263;SDS011;6700;51.988;7.646;2023-08-06T15:09:28;2.50;;;2.30;;
13263;SDS011;6700;51.988;7.646;2023-08-06T15:12:05;3.17;;;2.20;;
13263;SDS011;6700;51.988;7.646;2023-08-06T15:14:32;2.67;;;2.03;;
13263;SDS011;6700;51.988;7.646;2023-08-06T15:17:02;2.50;;;1.93;;
13263;SDS011;6700;51.988;7.646;2023-08-06T15:19:31;2.33;;;2.13;;
13263;SDS011;6700;51.988;7.646;2023-08-06T15:22:01;2.13;;;1.93;;
13263;SDS011;6700;51.988;7.646;2023-08-06T15:24:29;2.10;;;1.90;;
13263;SDS011;6700;51.988;7.646;2023-08-06T15:26:59;4.47;;;2.10;;